createdAt,value
2017-10-23T00:00:07.794Z,9.93
2017-10-23T00:00:43.036Z,7.70
2017-10-23T00:01:17.710Z,8.00
2017-10-23T00:01:55.125Z,10.73
2017-10-23T00:02:28.979Z,9.10
2017-10-23T00:03:03.339Z,9.77
2017-10-23T00:03:37.194Z,10.30
2017-10-23T00:04:12.198Z,11.12
2017-10-23T00:04:46.643Z,9.95
2017-10-23T00:05:21.524Z,7.05
2017-10-23T00:05:56.075Z,8.93
2017-10-23T00:06:29.960Z,13.23
2017-10-23T00:07:04.787Z,9.73
2017-10-23T00:07:38.670Z,6.87
2017-10-23T00:08:14.391Z,7.90
2017-10-23T00:08:48.254Z,8.95
2017-10-23T00:09:22.623Z,6.45
2017-10-23T00:09:57.417Z,8.82
2017-10-23T00:10:31.284Z,8.13
2017-10-23T00:11:06.073Z,7.10
2017-10-23T00:11:40.793Z,8.30
2017-10-23T00:12:14.645Z,8.02
2017-10-23T00:12:48.511Z,8.38
2017-10-23T00:13:22.376Z,7.22
2017-10-23T00:13:56.245Z,9.85
2017-10-23T00:14:30.255Z,12.10
2017-10-23T00:15:07.129Z,11.75
2017-10-23T00:15:41.005Z,8.40
2017-10-23T00:16:14.876Z,7.40
2017-10-23T00:16:48.754Z,8.30
2017-10-23T00:17:22.644Z,12.43
2017-10-23T00:17:56.542Z,12.25
2017-10-23T00:18:30.406Z,10.85
2017-10-23T00:19:04.289Z,11.07
2017-10-23T00:19:38.161Z,10.05
2017-10-23T00:20:12.077Z,8.75
2017-10-23T00:20:45.978Z,10.20
2017-10-23T00:21:19.842Z,10.77
2017-10-23T00:21:53.712Z,8.50
2017-10-23T00:22:27.578Z,6.97
2017-10-23T00:23:01.440Z,10.32
2017-10-23T00:23:35.329Z,8.32
2017-10-23T00:24:09.216Z,8.02
2017-10-23T00:24:43.098Z,12.18
2017-10-23T00:25:17.000Z,8.63
2017-10-23T00:25:50.903Z,8.07
2017-10-23T00:26:24.778Z,10.75
2017-10-23T00:26:58.643Z,13.82
2017-10-23T00:27:32.516Z,9.05
2017-10-23T00:28:06.400Z,7.55
2017-10-23T00:28:40.254Z,8.27
2017-10-23T00:29:14.125Z,8.90
2017-10-23T00:29:47.991Z,7.35
2017-10-23T00:30:21.883Z,10.00
2017-10-23T00:30:55.758Z,12.05
2017-10-23T00:31:29.640Z,11.52
2017-10-23T00:32:03.527Z,8.65
2017-10-23T00:32:37.400Z,8.43
2017-10-23T00:33:11.270Z,14.15
2017-10-23T00:33:45.163Z,7.90
2017-10-23T00:34:19.035Z,9.98
2017-10-23T00:34:52.909Z,8.85
2017-10-23T00:35:26.784Z,12.52
2017-10-23T00:36:00.653Z,7.32
2017-10-23T00:36:34.515Z,11.10
2017-10-23T00:37:08.434Z,10.20
2017-10-23T00:37:42.316Z,8.98
2017-10-23T00:38:16.186Z,9.23
2017-10-23T00:38:50.073Z,9.60
2017-10-23T00:39:23.938Z,9.52
2017-10-23T00:39:57.816Z,9.45
2017-10-23T00:40:31.689Z,10.60
2017-10-23T00:41:05.567Z,10.63
2017-10-23T00:41:39.421Z,7.00
2017-10-23T00:42:13.316Z,8.20
2017-10-23T00:42:47.193Z,10.27
2017-10-23T00:43:21.071Z,8.80
2017-10-23T00:43:54.949Z,9.20
2017-10-23T00:44:28.824Z,11.05
2017-10-23T00:45:02.689Z,10.05
2017-10-23T00:45:36.584Z,9.77
2017-10-23T00:46:10.446Z,10.98
2017-10-23T00:46:44.330Z,10.82
2017-10-23T00:47:18.203Z,12.77
2017-10-23T00:47:52.072Z,12.63
2017-10-23T00:48:26.601Z,8.73
2017-10-23T00:49:00.485Z,9.55
2017-10-23T00:49:34.351Z,9.38
2017-10-23T00:50:08.221Z,9.45
2017-10-23T00:50:42.107Z,8.63
2017-10-23T00:51:15.968Z,8.32
2017-10-23T00:51:49.836Z,10.20
2017-10-23T00:52:23.701Z,9.98
2017-10-23T00:52:57.572Z,12.00
2017-10-23T00:53:31.442Z,12.02
2017-10-23T00:54:05.291Z,8.75
2017-10-23T00:54:39.172Z,12.13
2017-10-23T00:55:13.036Z,10.25
2017-10-23T00:55:46.925Z,13.57
2017-10-23T00:56:20.795Z,10.43
2017-10-23T00:56:54.653Z,12.13
2017-10-23T00:57:28.539Z,9.88
2017-10-23T00:58:02.404Z,8.73
2017-10-23T00:58:36.291Z,11.18
2017-10-23T00:59:10.158Z,9.55
2017-10-23T00:59:44.029Z,9.85
2017-10-23T01:00:17.888Z,10.00
2017-10-23T01:00:51.768Z,10.98
2017-10-23T01:01:25.646Z,11.98
2017-10-23T01:01:59.523Z,10.70
2017-10-23T01:02:33.392Z,9.80
2017-10-23T01:03:07.266Z,11.10
2017-10-23T01:03:41.130Z,9.85
2017-10-23T01:04:15.002Z,11.95
2017-10-23T01:04:48.865Z,9.00
2017-10-23T01:05:22.741Z,8.00
2017-10-23T01:05:56.635Z,12.23
2017-10-23T01:06:30.523Z,12.32
2017-10-23T01:07:04.378Z,12.70
2017-10-23T01:07:38.231Z,9.63
2017-10-23T01:08:12.104Z,11.07
2017-10-23T01:08:45.987Z,7.93
2017-10-23T01:09:19.850Z,9.25
2017-10-23T01:09:53.742Z,13.40
2017-10-23T01:10:27.622Z,10.45
2017-10-23T01:11:01.515Z,11.68
2017-10-23T01:11:35.389Z,10.85
2017-10-23T01:12:09.285Z,13.48
2017-10-23T01:12:43.177Z,8.68
2017-10-23T01:13:17.043Z,9.00
2017-10-23T01:13:50.922Z,11.65
2017-10-23T01:14:24.801Z,10.10
2017-10-23T01:14:58.684Z,11.70
2017-10-23T01:15:32.585Z,11.07
2017-10-23T01:16:06.486Z,9.75
2017-10-23T01:16:40.432Z,8.57
2017-10-23T01:17:14.312Z,8.55
2017-10-23T01:17:48.197Z,9.55
2017-10-23T01:18:22.063Z,10.00
2017-10-23T01:18:55.951Z,11.35
2017-10-23T01:19:29.823Z,12.15
2017-10-23T01:20:03.691Z,8.30
2017-10-23T01:20:37.554Z,8.00
2017-10-23T01:21:11.435Z,12.07
2017-10-23T01:21:45.311Z,11.68
2017-10-23T01:22:19.195Z,9.05
2017-10-23T01:22:53.056Z,9.95
2017-10-23T01:23:26.946Z,12.25
2017-10-23T01:24:00.846Z,11.35
2017-10-23T01:24:34.733Z,10.20
2017-10-23T01:25:08.618Z,11.00
2017-10-23T01:25:42.469Z,9.60
2017-10-23T01:26:16.369Z,11.90
2017-10-23T01:26:50.229Z,9.68
2017-10-23T01:27:24.098Z,11.93
2017-10-23T01:27:57.980Z,10.63
2017-10-23T01:28:31.846Z,11.00
2017-10-23T01:29:05.708Z,10.40
2017-10-23T01:29:39.579Z,10.30
2017-10-23T01:30:13.470Z,9.68
2017-10-23T01:30:47.348Z,8.40
2017-10-23T01:31:21.235Z,11.35
2017-10-23T01:31:55.132Z,10.30
2017-10-23T01:32:29.009Z,6.65
2017-10-23T01:33:02.884Z,8.50
2017-10-23T01:33:36.744Z,8.70
2017-10-23T01:34:10.612Z,11.32
2017-10-23T01:34:44.513Z,9.18
2017-10-23T01:35:19.243Z,7.55
2017-10-23T01:35:53.093Z,12.82
2017-10-23T01:36:27.011Z,9.30
2017-10-23T01:37:00.881Z,11.12
2017-10-23T01:37:34.776Z,12.30
2017-10-23T01:38:08.644Z,12.95
2017-10-23T01:38:42.516Z,9.35
2017-10-23T01:39:16.400Z,9.82
2017-10-23T01:39:50.274Z,12.13
2017-10-23T01:40:24.144Z,14.13
2017-10-23T01:40:58.017Z,10.65
2017-10-23T01:41:31.935Z,11.38
2017-10-23T01:42:05.805Z,7.05
2017-10-23T01:42:39.691Z,8.23
2017-10-23T01:43:13.558Z,10.10
2017-10-23T01:43:47.438Z,13.62
2017-10-23T01:44:21.315Z,11.32
2017-10-23T01:44:55.194Z,12.37
2017-10-23T01:45:29.091Z,8.38
2017-10-23T01:46:02.974Z,14.02
2017-10-23T01:46:36.845Z,11.00
2017-10-23T01:47:10.705Z,9.13
2017-10-23T01:47:44.578Z,9.60
2017-10-23T01:48:18.446Z,8.93
2017-10-23T01:48:52.314Z,8.30
2017-10-23T01:49:26.181Z,12.18
2017-10-23T01:50:00.082Z,9.75
2017-10-23T01:50:33.944Z,8.25
2017-10-23T01:51:07.819Z,8.55
2017-10-23T01:51:41.727Z,10.88
2017-10-23T01:52:15.768Z,9.38
2017-10-23T01:52:49.629Z,15.50
2017-10-23T01:53:23.493Z,8.75
2017-10-23T01:53:57.361Z,9.15
2017-10-23T01:54:31.236Z,13.73
2017-10-23T01:55:05.138Z,8.55
2017-10-23T01:55:38.996Z,8.50
2017-10-23T01:56:12.878Z,11.38
2017-10-23T01:56:46.777Z,8.30
2017-10-23T01:57:20.673Z,9.95
2017-10-23T01:57:54.806Z,10.13
2017-10-23T01:58:28.703Z,8.75
2017-10-23T01:59:02.590Z,8.60
2017-10-23T01:59:36.460Z,11.48
2017-10-23T02:00:10.350Z,12.93
2017-10-23T02:00:44.228Z,15.27
2017-10-23T02:01:18.096Z,9.48
2017-10-23T02:01:51.988Z,9.88
2017-10-23T02:02:25.868Z,11.88
2017-10-23T02:02:59.745Z,9.27
2017-10-23T02:03:33.644Z,8.73
2017-10-23T02:04:07.514Z,9.77
2017-10-23T02:04:41.380Z,8.13
2017-10-23T02:05:15.258Z,10.57
2017-10-23T02:05:49.115Z,7.18
2017-10-23T02:06:22.963Z,6.62
2017-10-23T02:06:56.893Z,8.05
2017-10-23T02:07:30.786Z,10.00
2017-10-23T02:08:04.653Z,10.07
2017-10-23T02:08:38.526Z,8.10
2017-10-23T02:09:12.370Z,7.35
2017-10-23T02:09:46.243Z,8.40
2017-10-23T02:10:20.114Z,8.38
2017-10-23T02:10:53.998Z,13.52
2017-10-23T02:11:27.857Z,6.95
2017-10-23T02:12:01.750Z,10.10
2017-10-23T02:12:35.628Z,10.18
2017-10-23T02:13:09.488Z,9.38
2017-10-23T02:13:43.355Z,10.13
2017-10-23T02:14:17.221Z,10.10
2017-10-23T02:14:51.068Z,10.80
2017-10-23T02:15:24.921Z,10.15
2017-10-23T02:15:58.782Z,9.18
2017-10-23T02:16:32.652Z,7.57
2017-10-23T02:17:06.531Z,8.05
2017-10-23T02:17:40.405Z,11.65
2017-10-23T02:18:14.263Z,8.63
2017-10-23T02:18:48.141Z,10.25
2017-10-23T02:19:22.001Z,13.32
2017-10-23T02:19:55.869Z,9.88
2017-10-23T02:20:29.732Z,8.65
2017-10-23T02:21:03.609Z,10.55
2017-10-23T02:21:37.478Z,9.43
2017-10-23T02:22:11.346Z,11.70
2017-10-23T02:22:45.212Z,7.78
2017-10-23T02:23:19.083Z,9.20
2017-10-23T02:23:52.959Z,11.12
2017-10-23T02:24:26.819Z,9.25
2017-10-23T02:25:00.689Z,13.50
2017-10-23T02:25:34.551Z,12.60
2017-10-23T02:26:08.433Z,12.27
2017-10-23T02:26:42.311Z,10.07
2017-10-23T02:27:16.182Z,15.65
2017-10-23T02:27:50.048Z,14.13
2017-10-23T02:28:23.916Z,8.05
2017-10-23T02:28:57.768Z,8.32
2017-10-23T02:29:31.642Z,7.68
2017-10-23T02:30:05.521Z,7.85
2017-10-23T02:30:39.422Z,10.35
2017-10-23T02:31:13.355Z,7.45
2017-10-23T02:31:47.238Z,11.93
2017-10-23T02:32:21.153Z,9.95
2017-10-23T02:32:55.068Z,12.05
2017-10-23T02:33:28.950Z,12.23
2017-10-23T02:34:02.831Z,12.45
2017-10-23T02:34:36.705Z,9.60
2017-10-23T02:35:10.578Z,10.65
2017-10-23T02:35:44.446Z,11.63
2017-10-23T02:36:18.311Z,9.65
2017-10-23T02:36:52.195Z,8.10
2017-10-23T02:37:26.082Z,8.85
2017-10-23T02:37:59.975Z,11.07
2017-10-23T02:38:33.824Z,8.85
2017-10-23T02:39:07.706Z,10.57
2017-10-23T02:39:41.627Z,8.25
2017-10-23T02:40:15.508Z,11.18
2017-10-23T02:40:49.397Z,11.77
2017-10-23T02:41:23.305Z,8.93
2017-10-23T02:41:57.165Z,12.85
2017-10-23T02:42:31.056Z,10.63
2017-10-23T02:43:04.923Z,15.00
2017-10-23T02:43:38.808Z,14.57
2017-10-23T02:44:12.651Z,9.10
2017-10-23T02:44:46.526Z,12.48
2017-10-23T02:45:20.405Z,11.23
2017-10-23T02:45:54.271Z,13.73
2017-10-23T02:46:28.173Z,9.45
2017-10-23T02:47:02.029Z,8.88
2017-10-23T02:47:35.928Z,7.15
2017-10-23T02:48:09.804Z,11.95
2017-10-23T02:48:43.685Z,12.43
2017-10-23T02:49:17.552Z,13.73
2017-10-23T02:49:51.428Z,7.90
2017-10-23T02:50:25.308Z,11.15
2017-10-23T02:50:59.175Z,9.93
2017-10-23T02:51:33.058Z,11.20
2017-10-23T02:52:06.920Z,9.60
2017-10-23T02:52:40.794Z,8.40
2017-10-23T02:53:14.661Z,12.23
2017-10-23T02:53:48.530Z,13.57
2017-10-23T02:54:22.396Z,11.30
2017-10-23T02:54:56.266Z,19.27
2017-10-23T02:55:30.147Z,11.27
2017-10-23T02:56:04.017Z,15.30
2017-10-23T02:56:37.879Z,8.95
2017-10-23T02:57:11.746Z,12.37
2017-10-23T02:57:45.640Z,10.52
2017-10-23T02:58:19.497Z,12.48
2017-10-23T02:58:53.388Z,12.80
2017-10-23T02:59:27.260Z,11.48
2017-10-23T03:00:01.134Z,10.80
2017-10-23T03:00:35.022Z,12.90
2017-10-23T03:01:08.894Z,9.25
2017-10-23T03:01:42.752Z,9.18
2017-10-23T03:02:16.610Z,12.32
2017-10-23T03:02:50.507Z,9.93
2017-10-23T03:03:24.411Z,12.80
2017-10-23T03:03:58.281Z,11.65
2017-10-23T03:04:32.128Z,13.20
2017-10-23T03:05:05.992Z,11.32
2017-10-23T03:05:39.862Z,9.05
2017-10-23T03:06:13.736Z,11.35
2017-10-23T03:06:47.610Z,8.95
2017-10-23T03:07:21.473Z,15.45
2017-10-23T03:07:55.349Z,13.00
2017-10-23T03:08:29.217Z,9.73
2017-10-23T03:09:03.075Z,10.05
2017-10-23T03:09:36.935Z,16.05
2017-10-23T03:10:10.798Z,12.77
2017-10-23T03:10:44.664Z,10.60
2017-10-23T03:11:18.524Z,8.65
2017-10-23T03:11:52.402Z,10.00
2017-10-23T03:12:26.270Z,10.30
2017-10-23T03:13:00.162Z,15.80
2017-10-23T03:13:34.031Z,10.00
2017-10-23T03:14:07.915Z,13.07
2017-10-23T03:14:41.775Z,13.82
2017-10-23T03:15:15.637Z,16.98
2017-10-23T03:15:49.504Z,15.82
2017-10-23T03:16:23.356Z,9.82
2017-10-23T03:16:57.215Z,8.18
2017-10-23T03:17:31.099Z,13.23
2017-10-23T03:18:04.992Z,15.43
2017-10-23T03:18:38.877Z,8.73
2017-10-23T03:19:12.755Z,13.70
2017-10-23T03:19:46.627Z,10.95
2017-10-23T03:20:20.497Z,11.48
2017-10-23T03:20:54.365Z,13.38
2017-10-23T03:21:28.220Z,13.07
2017-10-23T03:22:02.091Z,13.85
2017-10-23T03:22:35.958Z,15.30
2017-10-23T03:23:09.839Z,14.55
2017-10-23T03:23:43.732Z,16.90
2017-10-23T03:24:17.609Z,12.43
2017-10-23T03:24:51.480Z,14.80
2017-10-23T03:25:25.337Z,14.70
2017-10-23T03:25:59.225Z,9.88
2017-10-23T03:26:33.096Z,10.23
2017-10-23T03:27:06.971Z,12.68
2017-10-23T03:27:40.888Z,13.45
2017-10-23T03:28:14.754Z,10.50
2017-10-23T03:28:48.621Z,12.05
2017-10-23T03:29:22.492Z,11.45
2017-10-23T03:29:56.367Z,14.95
2017-10-23T03:30:30.246Z,10.73
2017-10-23T03:31:04.128Z,14.50
2017-10-23T03:31:37.996Z,13.75
2017-10-23T03:32:11.880Z,12.00
2017-10-23T03:32:45.736Z,9.93
2017-10-23T03:33:19.626Z,12.90
2017-10-23T03:33:53.495Z,8.80
2017-10-23T03:34:27.387Z,11.02
2017-10-23T03:35:01.302Z,13.75
2017-10-23T03:35:35.177Z,12.25
2017-10-23T03:36:09.314Z,16.15
2017-10-23T03:36:43.176Z,12.88
2017-10-23T03:37:17.042Z,12.32
2017-10-23T03:37:50.925Z,11.23
2017-10-23T03:38:24.805Z,11.98
2017-10-23T03:38:58.666Z,15.80
2017-10-23T03:39:32.967Z,12.57
2017-10-23T03:40:06.849Z,11.45
2017-10-23T03:40:40.746Z,11.80
2017-10-23T03:41:14.624Z,12.68
2017-10-23T03:41:48.500Z,16.23
2017-10-23T03:42:22.407Z,18.02
2017-10-23T03:42:56.273Z,12.05
2017-10-23T03:43:30.171Z,11.60
2017-10-23T03:44:04.041Z,11.77
2017-10-23T03:44:37.913Z,16.52
2017-10-23T03:45:11.841Z,16.10
2017-10-23T03:45:45.764Z,14.27
2017-10-23T03:46:19.662Z,13.27
2017-10-23T03:46:53.548Z,12.32
2017-10-23T03:47:27.416Z,11.27
2017-10-23T03:48:01.299Z,12.18
2017-10-23T03:48:35.185Z,16.75
2017-10-23T03:49:09.071Z,12.10
2017-10-23T03:49:42.945Z,17.60
2017-10-23T03:50:16.828Z,17.12
2017-10-23T03:50:51.006Z,16.12
2017-10-23T03:51:24.883Z,14.48
2017-10-23T03:51:58.771Z,17.73
2017-10-23T03:52:32.638Z,15.88
2017-10-23T03:53:06.527Z,13.52
2017-10-23T03:53:40.429Z,15.73
2017-10-23T03:54:14.331Z,15.55
2017-10-23T03:54:48.222Z,17.25
2017-10-23T03:55:22.104Z,15.10
2017-10-23T03:55:55.996Z,13.70
2017-10-23T03:56:29.874Z,19.77
2017-10-23T03:57:03.754Z,13.70
2017-10-23T03:57:37.620Z,13.73
2017-10-23T03:58:11.508Z,11.98
2017-10-23T03:58:45.389Z,13.10
2017-10-23T03:59:19.261Z,14.85
2017-10-23T03:59:53.156Z,15.55
2017-10-23T04:00:27.031Z,12.80
2017-10-23T04:01:00.902Z,15.35
2017-10-23T04:01:34.768Z,13.52
2017-10-23T04:02:08.638Z,14.95
2017-10-23T04:02:42.554Z,11.70
2017-10-23T04:03:16.427Z,13.90
2017-10-23T04:03:50.305Z,16.83
2017-10-23T04:04:24.163Z,13.80
2017-10-23T04:04:58.032Z,15.70
2017-10-23T04:05:31.902Z,16.10
2017-10-23T04:06:05.784Z,15.38
2017-10-23T04:06:39.746Z,16.58
2017-10-23T04:07:13.618Z,15.85
2017-10-23T04:07:47.508Z,16.45
2017-10-23T04:08:21.394Z,18.92
2017-10-23T04:08:55.285Z,16.45
2017-10-23T04:09:29.268Z,21.70
2017-10-23T04:10:03.156Z,15.65
2017-10-23T04:10:37.056Z,17.62
2017-10-23T04:11:10.947Z,14.98
2017-10-23T04:11:44.820Z,15.52
2017-10-23T04:12:18.711Z,16.12
2017-10-23T04:12:52.606Z,15.90
2017-10-23T04:13:26.476Z,15.70
2017-10-23T04:14:00.377Z,14.93
2017-10-23T04:14:34.288Z,17.33
2017-10-23T04:15:08.166Z,14.65
2017-10-23T04:15:42.112Z,16.98
2017-10-23T04:16:16.282Z,14.95
2017-10-23T04:16:50.164Z,17.80
2017-10-23T04:17:24.063Z,19.75
2017-10-23T04:17:57.953Z,14.48
2017-10-23T04:18:31.824Z,16.05
2017-10-23T04:19:05.746Z,11.63
2017-10-23T04:19:39.626Z,16.48
2017-10-23T04:20:13.501Z,16.65
2017-10-23T04:20:47.381Z,15.27
2017-10-23T04:21:21.275Z,14.05
2017-10-23T04:21:55.154Z,20.10
2017-10-23T04:22:29.013Z,16.15
2017-10-23T04:23:02.882Z,17.08
2017-10-23T04:23:36.761Z,14.68
2017-10-23T04:24:10.646Z,15.65
2017-10-23T04:24:44.513Z,15.68
2017-10-23T04:25:18.389Z,14.35
2017-10-23T04:25:52.297Z,13.68
2017-10-23T04:26:26.175Z,14.20
2017-10-23T04:27:00.059Z,17.20
2017-10-23T04:27:33.928Z,15.30
2017-10-23T04:28:07.799Z,15.48
2017-10-23T04:28:41.674Z,16.20
2017-10-23T04:29:15.557Z,14.52
2017-10-23T04:29:49.450Z,12.57
2017-10-23T04:30:23.338Z,16.05
2017-10-23T04:30:57.235Z,14.93
2017-10-23T04:31:31.116Z,17.33
2017-10-23T04:32:05.020Z,16.35
2017-10-23T04:32:38.897Z,14.82
2017-10-23T04:33:12.790Z,17.05
2017-10-23T04:33:46.667Z,15.18
2017-10-23T04:34:20.551Z,18.90
2017-10-23T04:34:54.425Z,12.95
2017-10-23T04:35:28.316Z,15.98
2017-10-23T04:36:02.203Z,13.70
2017-10-23T04:36:36.089Z,14.20
2017-10-23T04:37:09.972Z,16.48
2017-10-23T04:37:43.885Z,15.18
2017-10-23T04:38:17.756Z,16.70
2017-10-23T04:38:51.634Z,16.83
2017-10-23T04:39:25.541Z,16.52
2017-10-23T04:39:59.445Z,19.37
2017-10-23T04:40:33.300Z,17.02
2017-10-23T04:41:07.176Z,17.80
2017-10-23T04:41:41.056Z,19.30
2017-10-23T04:42:14.936Z,17.30
2017-10-23T04:42:48.822Z,18.55
2017-10-23T04:43:22.703Z,15.82
2017-10-23T04:43:56.578Z,18.77
2017-10-23T04:44:30.458Z,14.68
2017-10-23T04:45:04.328Z,14.50
2017-10-23T04:45:38.188Z,16.85
2017-10-23T04:46:12.073Z,17.23
2017-10-23T04:46:45.974Z,18.52
2017-10-23T04:47:19.870Z,19.58
2017-10-23T04:47:53.747Z,15.60
2017-10-23T04:48:27.605Z,15.30
2017-10-23T04:49:01.482Z,16.45
2017-10-23T04:49:35.377Z,16.70
2017-10-23T04:50:09.261Z,18.35
2017-10-23T04:50:43.132Z,19.25
2017-10-23T04:51:17.019Z,15.43
2017-10-23T04:51:50.905Z,13.65
2017-10-23T04:52:24.774Z,13.65
2017-10-23T04:52:58.680Z,16.20
2017-10-23T04:53:32.549Z,15.65
2017-10-23T04:54:06.421Z,18.17
2017-10-23T04:54:40.303Z,16.52
2017-10-23T04:55:14.203Z,18.40
2017-10-23T04:55:48.100Z,13.73
2017-10-23T04:56:21.971Z,17.10
2017-10-23T04:56:55.846Z,18.30
2017-10-23T04:57:29.724Z,17.05
2017-10-23T04:58:03.612Z,15.90
2017-10-23T04:58:37.500Z,15.00
2017-10-23T04:59:11.384Z,18.75
2017-10-23T04:59:45.293Z,19.20
2017-10-23T05:00:19.168Z,16.48
2017-10-23T05:00:53.064Z,14.20
2017-10-23T05:01:26.947Z,17.15
2017-10-23T05:02:00.831Z,15.07
2017-10-23T05:02:34.739Z,17.08
2017-10-23T05:03:08.622Z,17.33
2017-10-23T05:03:42.503Z,19.90
2017-10-23T05:04:16.385Z,16.00
2017-10-23T05:04:50.292Z,19.12
2017-10-23T05:05:24.180Z,16.73
2017-10-23T05:05:58.062Z,16.30
2017-10-23T05:06:31.939Z,15.50
2017-10-23T05:07:05.832Z,17.50
2017-10-23T05:07:39.714Z,15.05
2017-10-23T05:08:13.596Z,14.52
2017-10-23T05:08:47.475Z,13.73
2017-10-23T05:09:21.348Z,15.02
2017-10-23T05:09:55.252Z,18.83
2017-10-23T05:10:29.138Z,14.70
2017-10-23T05:11:03.014Z,21.98
2017-10-23T05:11:36.896Z,16.75
2017-10-23T05:12:10.791Z,15.05
2017-10-23T05:12:44.666Z,15.15
2017-10-23T05:13:18.549Z,14.50
2017-10-23T05:13:52.462Z,15.88
2017-10-23T05:14:26.465Z,17.85
2017-10-23T05:15:00.404Z,18.20
2017-10-23T05:15:34.297Z,17.25
2017-10-23T05:16:08.188Z,17.62
2017-10-23T05:16:42.086Z,17.75
2017-10-23T05:17:15.981Z,17.95
2017-10-23T05:17:49.903Z,20.98
2017-10-23T05:18:23.772Z,16.02
2017-10-23T05:18:57.655Z,16.08
2017-10-23T05:19:31.540Z,17.80
2017-10-23T05:20:05.429Z,18.37
2017-10-23T05:20:39.312Z,16.35
2017-10-23T05:21:13.203Z,17.90
2017-10-23T05:21:47.100Z,23.70
2017-10-23T05:22:20.971Z,14.50
2017-10-23T05:22:54.891Z,17.73
2017-10-23T05:23:28.775Z,16.62
2017-10-23T05:24:02.663Z,18.23
2017-10-23T05:24:36.539Z,18.00
2017-10-23T05:25:10.448Z,16.05
2017-10-23T05:25:44.313Z,18.70
2017-10-23T05:26:18.226Z,17.08
2017-10-23T05:26:52.089Z,14.93
2017-10-23T05:27:25.977Z,16.12
2017-10-23T05:27:59.875Z,18.60
2017-10-23T05:28:33.743Z,15.65
2017-10-23T05:29:07.640Z,20.15
2017-10-23T05:29:41.505Z,14.68
2017-10-23T05:30:15.450Z,18.08
2017-10-23T05:30:49.382Z,19.23
2017-10-23T05:31:23.255Z,24.12
2017-10-23T05:31:57.149Z,19.92
2017-10-23T05:32:31.028Z,18.45
2017-10-23T05:33:04.925Z,19.35
2017-10-23T05:33:38.799Z,19.98
2017-10-23T05:34:12.724Z,17.80
2017-10-23T05:34:46.607Z,18.42
2017-10-23T05:35:20.506Z,16.87
2017-10-23T05:35:54.387Z,15.43
2017-10-23T05:36:28.274Z,21.70
2017-10-23T05:37:02.133Z,24.20
2017-10-23T05:37:36.017Z,21.95
2017-10-23T05:38:09.924Z,18.25
2017-10-23T05:38:43.835Z,19.42
2017-10-23T05:39:17.723Z,18.58
2017-10-23T05:39:51.600Z,18.67
2017-10-23T05:40:25.509Z,16.70
2017-10-23T05:40:59.384Z,19.05
2017-10-23T05:41:33.273Z,19.90
2017-10-23T05:42:07.173Z,19.02
2017-10-23T05:42:41.070Z,17.40
2017-10-23T05:43:14.963Z,18.83
2017-10-23T05:43:48.866Z,16.83
2017-10-23T05:44:22.772Z,18.73
2017-10-23T05:44:56.647Z,21.80
2017-10-23T05:45:30.537Z,18.92
2017-10-23T05:46:04.422Z,19.23
2017-10-23T05:46:38.328Z,18.67
2017-10-23T05:47:12.231Z,19.42
2017-10-23T05:47:46.104Z,21.40
2017-10-23T05:48:19.973Z,20.37
2017-10-23T05:48:53.852Z,20.17
2017-10-23T05:49:27.713Z,19.45
2017-10-23T05:50:01.596Z,16.45
2017-10-23T05:50:35.475Z,17.35
2017-10-23T05:51:09.346Z,19.10
2017-10-23T05:51:43.203Z,24.58
2017-10-23T05:52:17.078Z,19.25
2017-10-23T05:52:50.953Z,21.98
2017-10-23T05:53:24.820Z,21.75
2017-10-23T05:53:58.699Z,17.75
2017-10-23T05:54:32.593Z,17.42
2017-10-23T05:55:06.469Z,22.33
2017-10-23T05:55:40.408Z,17.12
2017-10-23T05:56:14.307Z,22.90
2017-10-23T05:56:48.214Z,23.48
2017-10-23T05:57:22.085Z,20.27
2017-10-23T05:57:55.954Z,17.90
2017-10-23T05:58:29.828Z,17.67
2017-10-23T05:59:03.778Z,17.83
2017-10-23T05:59:37.679Z,20.55
2017-10-23T06:00:11.566Z,20.37
2017-10-23T06:00:45.519Z,17.80
2017-10-23T06:01:19.382Z,18.17
2017-10-23T06:01:53.283Z,20.15
2017-10-23T06:02:27.154Z,18.83
2017-10-23T06:03:01.031Z,18.50
2017-10-23T06:03:34.918Z,23.58
2017-10-23T06:04:08.817Z,19.70
2017-10-23T06:04:43.696Z,19.20
2017-10-23T06:05:17.583Z,21.85
2017-10-23T06:05:51.472Z,22.92
2017-10-23T06:06:25.325Z,20.10
2017-10-23T06:06:59.184Z,22.67
2017-10-23T06:07:33.062Z,21.48
2017-10-23T06:08:06.931Z,17.73
2017-10-23T06:08:40.801Z,15.32
2017-10-23T06:09:14.696Z,21.65
2017-10-23T06:09:48.598Z,18.75
2017-10-23T06:10:22.492Z,20.75
2017-10-23T06:10:56.401Z,19.08
2017-10-23T06:11:30.250Z,20.80
2017-10-23T06:12:04.135Z,17.65
2017-10-23T06:12:38.189Z,19.85
2017-10-23T06:13:12.094Z,20.30
2017-10-23T06:13:46.160Z,16.17
2017-10-23T06:14:20.024Z,16.48
2017-10-23T06:14:53.892Z,20.77
2017-10-23T06:15:27.774Z,20.40
2017-10-23T06:16:01.889Z,21.50
2017-10-23T06:16:35.766Z,20.58
2017-10-23T06:17:09.648Z,19.73
2017-10-23T06:17:43.532Z,19.62
2017-10-23T06:18:17.422Z,17.98
2017-10-23T06:18:51.292Z,18.92
2017-10-23T06:19:25.174Z,20.08
2017-10-23T06:19:59.054Z,21.55
2017-10-23T06:20:32.933Z,16.45
2017-10-23T06:21:06.819Z,20.30
2017-10-23T06:21:40.717Z,19.75
2017-10-23T06:22:14.598Z,21.02
2017-10-23T06:22:48.474Z,22.30
2017-10-23T06:23:22.401Z,18.95
2017-10-23T06:23:56.299Z,18.75
2017-10-23T06:24:30.196Z,18.52
2017-10-23T06:25:04.073Z,21.02
2017-10-23T06:25:37.957Z,21.30
2017-10-23T06:26:11.903Z,23.67
2017-10-23T06:26:45.789Z,21.20
2017-10-23T06:29:01.863Z,19.92
2017-10-23T06:30:26.644Z,19.00
2017-10-23T06:31:00.508Z,21.08
2017-10-23T06:31:34.398Z,17.52
2017-10-23T06:32:08.253Z,17.98
2017-10-23T06:32:42.150Z,18.60
2017-10-23T06:33:16.041Z,17.08
2017-10-23T06:33:49.910Z,19.87
2017-10-23T06:34:23.819Z,21.65
2017-10-23T06:34:57.736Z,17.92
2017-10-23T06:35:31.622Z,19.67
2017-10-23T06:36:05.505Z,19.25
2017-10-23T06:36:39.405Z,25.55
2017-10-23T06:37:13.299Z,18.00
2017-10-23T06:37:47.179Z,20.80
2017-10-23T06:38:21.073Z,18.55
2017-10-23T06:38:54.964Z,19.95
2017-10-23T06:39:28.830Z,20.12
2017-10-23T06:40:02.703Z,24.58
2017-10-23T06:40:36.571Z,24.33
2017-10-23T06:41:10.451Z,23.85
2017-10-23T06:41:44.326Z,18.27
2017-10-23T06:42:18.218Z,22.25
2017-10-23T06:42:52.088Z,21.75
2017-10-23T06:43:25.952Z,24.67
2017-10-23T06:43:59.815Z,20.65
2017-10-23T06:44:33.686Z,20.77
2017-10-23T06:45:07.564Z,19.83
2017-10-23T06:45:41.450Z,19.62
2017-10-23T06:46:15.339Z,21.02
2017-10-23T06:46:49.249Z,22.70
2017-10-23T06:47:23.115Z,20.95
2017-10-23T06:47:57.462Z,17.08
2017-10-23T06:48:31.339Z,18.62
2017-10-23T06:49:05.504Z,21.15
2017-10-23T06:49:39.375Z,24.17
2017-10-23T06:50:13.533Z,30.30
2017-10-23T06:50:47.398Z,19.62
2017-10-23T06:51:21.246Z,22.33
2017-10-23T06:51:55.387Z,21.67
2017-10-23T06:52:29.269Z,22.02
2017-10-23T06:53:03.140Z,21.37
2017-10-23T06:53:36.996Z,23.23
2017-10-23T06:54:10.868Z,25.30
2017-10-23T06:54:44.737Z,17.98
2017-10-23T06:55:18.632Z,25.17
2017-10-23T06:55:52.497Z,22.70
2017-10-23T06:56:26.382Z,23.20
2017-10-23T06:57:00.275Z,20.05
2017-10-23T06:57:34.137Z,16.52
2017-10-23T06:58:07.993Z,19.23
2017-10-23T06:58:41.904Z,20.25
2017-10-23T06:59:15.787Z,17.25
2017-10-23T06:59:49.646Z,22.87
2017-10-23T07:00:23.510Z,22.35
2017-10-23T07:00:57.372Z,19.58
2017-10-23T07:01:31.227Z,26.20
2017-10-23T07:02:05.125Z,19.45
2017-10-23T07:02:38.998Z,19.87
2017-10-23T07:03:12.864Z,19.27
2017-10-23T07:03:46.736Z,21.67
2017-10-23T07:04:20.593Z,21.90
2017-10-23T07:04:54.774Z,17.77
2017-10-23T07:05:28.640Z,17.90
2017-10-23T07:06:02.504Z,24.42
2017-10-23T07:06:36.363Z,19.52
2017-10-23T07:07:10.273Z,15.68
2017-10-23T07:07:44.146Z,18.65
2017-10-23T07:08:18.038Z,23.77
2017-10-23T07:08:51.907Z,21.10
2017-10-23T07:09:25.785Z,21.98
2017-10-23T07:09:59.642Z,18.10
2017-10-23T07:10:33.510Z,20.62
2017-10-23T07:11:07.379Z,16.12
2017-10-23T07:11:41.267Z,20.83
2017-10-23T07:12:15.143Z,16.52
2017-10-23T07:12:49.022Z,17.33
2017-10-23T07:13:22.891Z,18.87
2017-10-23T07:13:56.776Z,15.50
2017-10-23T07:14:30.631Z,18.15
2017-10-23T07:15:04.514Z,19.73
2017-10-23T07:15:38.384Z,18.05
2017-10-23T07:16:12.246Z,18.30
2017-10-23T07:16:46.095Z,17.65
2017-10-23T07:17:19.972Z,20.95
2017-10-23T07:17:53.862Z,15.63
2017-10-23T07:18:27.725Z,19.25
2017-10-23T07:19:01.587Z,17.05
2017-10-23T07:19:35.536Z,19.98
2017-10-23T07:20:09.637Z,16.75
2017-10-23T07:20:43.499Z,20.40
2017-10-23T07:21:17.363Z,19.45
2017-10-23T07:21:51.248Z,18.65
2017-10-23T07:22:25.157Z,17.23